createdAt,value
2022-10-11T00:01:55.608Z,7.40
2022-10-11T00:04:23.520Z,9.77
2022-10-11T00:06:51.361Z,3.50
2022-10-11T00:09:19.336Z,10.13
2022-10-11T00:11:48.842Z,8.83
2022-10-11T00:14:16.711Z,6.03
2022-10-11T00:16:44.669Z,6.27
2022-10-11T00:19:12.983Z,7.67
2022-10-11T00:21:40.850Z,5.03
2022-10-11T00:24:09.253Z,14.30
2022-10-11T00:26:37.225Z,7.50
2022-10-11T00:29:06.473Z,8.70
2022-10-11T00:31:35.798Z,8.27
2022-10-11T00:34:03.925Z,6.53
2022-10-11T00:36:31.911Z,10.63
2022-10-11T00:39:00.269Z,7.53
2022-10-11T00:41:28.204Z,9.03
2022-10-11T00:44:19.117Z,10.27
2022-10-11T00:46:56.117Z,4.00
2022-10-11T00:49:31.539Z,8.70
2022-10-11T00:52:02.835Z,9.40
2022-10-11T00:54:33.155Z,6.73
2022-10-11T00:57:04.359Z,7.53
2022-10-11T00:59:38.187Z,5.23
2022-10-11T01:02:07.773Z,4.37
2022-10-11T01:04:36.047Z,5.53
2022-10-11T01:07:04.210Z,9.57
2022-10-11T01:09:32.713Z,6.67
2022-10-11T01:12:04.022Z,6.73
2022-10-11T01:15:07.307Z,7.37
2022-10-11T01:17:47.100Z,5.37
2022-10-11T01:20:34.433Z,5.53
2022-10-11T01:23:39.710Z,5.07
2022-10-11T01:26:32.188Z,7.83
2022-10-11T01:29:12.675Z,6.67
2022-10-11T01:31:50.372Z,4.77
2022-10-11T01:34:26.204Z,6.20
2022-10-11T01:37:01.771Z,6.77
2022-10-11T01:39:34.139Z,6.67
2022-10-11T01:42:06.207Z,7.43
2022-10-11T01:44:36.150Z,11.17
2022-10-11T01:47:05.681Z,7.13
2022-10-11T01:49:34.895Z,5.60
2022-10-11T01:52:06.824Z,9.47
2022-10-11T01:55:08.598Z,7.70
2022-10-11T01:57:50.486Z,6.70
2022-10-11T02:00:21.184Z,8.03
2022-10-11T02:03:05.924Z,6.23
2022-10-11T02:05:44.625Z,3.83
2022-10-11T02:08:20.053Z,8.53
2022-10-11T02:10:52.755Z,4.77
2022-10-11T02:13:26.304Z,5.87
2022-10-11T02:15:56.762Z,6.67
2022-10-11T02:18:32.100Z,5.63
2022-10-11T02:21:02.662Z,13.97
2022-10-11T02:23:36.265Z,8.23
2022-10-11T02:26:07.268Z,10.07
2022-10-11T02:28:38.194Z,5.53
2022-10-11T02:31:07.955Z,6.37
2022-10-11T02:33:44.336Z,4.37
2022-10-11T02:36:18.300Z,6.20
2022-10-11T02:38:51.362Z,3.60
2022-10-11T02:41:24.347Z,8.13
2022-10-11T02:43:58.426Z,10.93
2022-10-11T02:46:30.409Z,7.20
2022-10-11T02:49:00.875Z,6.50
2022-10-11T02:51:31.319Z,8.33
2022-10-11T02:53:59.470Z,6.93
2022-10-11T02:56:27.499Z,5.77
2022-10-11T02:58:57.496Z,6.10
2022-10-11T03:01:25.728Z,11.40
2022-10-11T03:03:53.723Z,7.57
2022-10-11T03:06:22.993Z,13.07
2022-10-11T03:08:51.143Z,7.87
2022-10-11T03:11:19.033Z,9.50
2022-10-11T03:13:49.218Z,5.03
2022-10-11T03:16:17.185Z,10.57
2022-10-11T03:18:45.123Z,8.87
2022-10-11T03:21:13.077Z,7.13
2022-10-11T03:23:42.565Z,5.77
2022-10-11T03:26:10.490Z,5.73
2022-10-11T03:28:38.393Z,5.40
2022-10-11T03:31:06.623Z,15.80
2022-10-11T03:33:34.528Z,8.80
2022-10-11T03:36:02.674Z,6.93
2022-10-11T03:38:30.928Z,6.60
2022-10-11T03:41:00.173Z,7.87
2022-10-11T03:43:27.988Z,7.57
2022-10-11T03:45:55.889Z,5.30
2022-10-11T03:48:23.792Z,11.23
2022-10-11T03:50:51.686Z,8.33
2022-10-11T03:53:19.600Z,4.77
2022-10-11T03:55:47.551Z,12.57
2022-10-11T03:58:16.806Z,8.20
2022-10-11T04:00:46.971Z,5.93
2022-10-11T04:03:15.017Z,7.30
2022-10-11T04:05:42.920Z,5.57
2022-10-11T04:08:12.298Z,5.87
2022-10-11T04:10:40.819Z,8.97
2022-10-11T04:13:10.413Z,6.13
2022-10-11T04:15:41.194Z,5.60
2022-10-11T04:18:09.205Z,7.97
2022-10-11T04:20:37.240Z,10.97
2022-10-11T04:23:05.311Z,5.93
2022-10-11T04:25:33.188Z,6.77
2022-10-11T04:28:01.012Z,3.80
2022-10-11T04:30:28.968Z,5.70
2022-10-11T04:32:58.192Z,8.63
2022-10-11T04:35:26.087Z,7.33
2022-10-11T04:37:56.459Z,9.07
2022-10-11T04:40:24.355Z,5.47
2022-10-11T04:42:53.642Z,4.47
2022-10-11T04:45:21.668Z,6.87
2022-10-11T04:47:49.805Z,8.63
2022-10-11T04:50:21.690Z,9.53
2022-10-11T04:52:49.759Z,9.00
2022-10-11T04:55:17.822Z,7.97
2022-10-11T04:57:45.704Z,8.73
2022-10-11T05:00:15.730Z,7.20
2022-10-11T05:02:44.163Z,12.20
2022-10-11T05:05:12.908Z,6.33
2022-10-11T05:07:42.176Z,4.70
2022-10-11T05:10:11.271Z,6.63
2022-10-11T05:12:39.211Z,11.93
2022-10-11T05:15:08.557Z,7.67
2022-10-11T05:17:38.884Z,7.20
2022-10-11T05:20:07.880Z,4.23
2022-10-11T05:22:35.768Z,8.63
2022-10-11T05:25:05.574Z,6.47
2022-10-11T05:27:33.456Z,9.03
2022-10-11T05:30:01.925Z,8.60
2022-10-11T05:32:29.824Z,6.47
2022-10-11T05:34:57.763Z,8.90
2022-10-11T05:37:25.638Z,12.70
2022-10-11T05:39:53.901Z,12.87
2022-10-11T05:42:23.137Z,10.40
2022-10-11T05:44:51.052Z,7.13
2022-10-11T05:47:18.906Z,13.57
2022-10-11T05:49:46.802Z,12.20
2022-10-11T05:52:19.672Z,13.47
2022-10-11T05:54:47.937Z,10.93
2022-10-11T05:57:16.057Z,17.27
2022-10-11T05:59:45.347Z,21.27
2022-10-11T06:02:14.213Z,11.83
2022-10-11T06:04:42.068Z,17.27
2022-10-11T06:07:09.972Z,26.20
2022-10-11T06:09:38.062Z,22.97
2022-10-11T06:12:06.306Z,26.07
2022-10-11T06:14:34.341Z,31.33
2022-10-11T06:17:03.540Z,27.63
2022-10-11T06:19:31.388Z,22.30
2022-10-11T06:21:59.285Z,28.30
2022-10-11T06:24:27.150Z,28.63
2022-10-11T06:26:55.582Z,31.17
2022-10-11T06:29:23.568Z,30.80
2022-10-11T06:31:51.496Z,35.23
2022-10-11T06:34:20.808Z,38.03
2022-10-11T06:36:48.778Z,32.00
2022-10-11T06:39:16.749Z,34.67
2022-10-11T06:41:44.664Z,28.03
2022-10-11T06:44:14.253Z,44.27
2022-10-11T06:46:42.932Z,47.90
2022-10-11T06:49:10.830Z,32.30
2022-10-11T06:51:40.107Z,27.33
2022-10-11T06:54:10.444Z,28.03
2022-10-11T06:56:38.297Z,31.20
2022-10-11T06:59:06.213Z,33.17
2022-10-11T07:01:34.229Z,32.30
2022-10-11T07:04:02.998Z,31.97
2022-10-11T07:06:32.602Z,32.93
2022-10-11T07:09:02.239Z,25.33
2022-10-11T07:11:30.529Z,28.80
2022-10-11T07:14:00.722Z,29.93
2022-10-11T07:16:29.643Z,28.90
2022-10-11T07:19:00.923Z,25.23
2022-10-11T07:21:32.338Z,28.07
2022-10-11T07:24:02.455Z,26.10
2022-10-11T07:26:36.656Z,29.13
2022-10-11T07:29:06.042Z,31.60
2022-10-11T07:31:34.048Z,28.67
2022-10-11T07:34:02.047Z,31.63
2022-10-11T07:36:29.989Z,29.53
2022-10-11T07:38:57.849Z,30.43
2022-10-11T07:41:27.166Z,31.77
2022-10-11T07:43:55.133Z,32.70
2022-10-11T07:46:23.214Z,31.63
2022-10-11T07:48:51.179Z,36.47
2022-10-11T07:51:21.692Z,35.47
2022-10-11T07:53:52.074Z,35.37
2022-10-11T07:56:22.147Z,32.07
2022-10-11T07:58:53.277Z,35.10
2022-10-11T08:01:21.927Z,38.30
2022-10-11T08:03:50.352Z,42.50
2022-10-11T08:06:21.077Z,35.50
2022-10-11T08:08:50.372Z,38.90
2022-10-11T08:11:22.996Z,41.40
2022-10-11T08:13:52.738Z,40.53
2022-10-11T08:16:24.175Z,45.87
2022-10-11T08:18:52.143Z,49.30
2022-10-11T08:21:21.317Z,48.13
2022-10-11T08:23:49.391Z,48.70
2022-10-11T08:26:17.294Z,44.20
2022-10-11T08:28:45.337Z,44.77
2022-10-11T08:31:15.840Z,48.37
2022-10-11T08:33:44.369Z,43.87
2022-10-11T08:36:13.395Z,48.47
2022-10-11T08:38:41.991Z,46.13
2022-10-11T08:41:32.682Z,55.07
2022-10-11T08:44:17.304Z,42.90
2022-10-11T08:46:51.513Z,45.60
2022-10-11T08:49:26.257Z,48.47
2022-10-11T08:52:02.268Z,47.77
2022-10-11T08:54:42.983Z,47.90
2022-10-11T08:57:14.712Z,51.87
2022-10-11T08:59:49.006Z,47.23
2022-10-11T09:02:43.696Z,43.27
2022-10-11T09:05:19.772Z,46.67
2022-10-11T09:07:58.624Z,47.10
2022-10-11T09:10:45.410Z,47.80
2022-10-11T09:13:31.414Z,53.23
2022-10-11T09:16:07.217Z,48.73
2022-10-11T09:18:58.600Z,51.73
2022-10-11T09:21:34.325Z,47.20
2022-10-11T09:24:16.435Z,50.43
2022-10-11T09:26:53.886Z,45.90
2022-10-11T09:29:34.031Z,48.27
2022-10-11T09:32:02.348Z,47.50
2022-10-11T09:34:33.571Z,49.50
2022-10-11T09:37:06.994Z,51.07
2022-10-11T09:39:36.708Z,51.07
2022-10-11T09:42:07.760Z,44.37
2022-10-11T09:44:38.667Z,45.37
2022-10-11T09:47:07.238Z,51.83
2022-10-11T09:49:39.245Z,50.93
2022-10-11T09:52:15.238Z,47.13
2022-10-11T09:54:46.059Z,48.70
2022-10-11T09:57:25.082Z,49.50
2022-10-11T10:00:00.921Z,45.20
2022-10-11T10:02:29.192Z,51.43
2022-10-11T10:05:05.780Z,43.67
2022-10-11T10:07:35.420Z,49.40
2022-10-11T10:10:27.283Z,45.40
2022-10-11T10:12:55.935Z,46.83
2022-10-11T10:15:26.489Z,43.37
2022-10-11T10:17:54.661Z,35.83
2022-10-11T10:20:27.334Z,34.97
2022-10-11T10:22:55.380Z,43.57
2022-10-11T10:25:27.568Z,30.87
2022-10-11T10:27:58.644Z,27.27
2022-10-11T10:30:29.801Z,35.30
2022-10-11T10:33:05.400Z,32.30
2022-10-11T10:35:38.452Z,29.00
2022-10-11T10:38:16.478Z,27.87
2022-10-11T10:40:48.075Z,26.13
2022-10-11T10:43:18.223Z,22.90
2022-10-11T10:46:20.442Z,27.27
2022-10-11T10:51:53.393Z,24.30
2022-10-11T10:54:34.290Z,20.43
2022-10-11T10:57:05.542Z,23.60
2022-10-11T10:59:49.319Z,31.00
2022-10-11T11:02:39.816Z,27.57
2022-10-11T11:05:18.709Z,26.30
2022-10-11T11:07:54.123Z,26.20
2022-10-11T11:10:26.274Z,22.60
2022-10-11T11:13:07.894Z,21.00
2022-10-11T11:15:39.989Z,21.33
2022-10-11T11:18:25.830Z,20.13
2022-10-11T11:21:09.856Z,23.10
2022-10-11T11:23:45.089Z,24.33
2022-10-11T11:26:19.523Z,19.73
2022-10-11T11:29:07.315Z,19.93
2022-10-11T11:31:55.273Z,18.60
2022-10-11T11:34:26.896Z,18.83
2022-10-11T11:36:58.421Z,19.67
2022-10-11T11:39:32.262Z,21.27
2022-10-11T11:42:06.335Z,16.50
2022-10-11T11:44:40.857Z,20.50
2022-10-11T11:47:17.744Z,20.67
2022-10-11T11:49:50.369Z,16.37
2022-10-11T11:52:27.346Z,17.23
2022-10-11T11:55:06.774Z,11.87
2022-10-11T11:57:47.816Z,15.87
2022-10-11T12:00:19.257Z,12.73
2022-10-11T12:02:52.807Z,16.23
2022-10-11T12:05:23.938Z,16.57
2022-10-11T12:07:56.590Z,15.97
2022-10-11T12:10:33.130Z,13.40
2022-10-11T12:13:11.015Z,17.67
2022-10-11T12:15:41.815Z,12.53
2022-10-11T12:18:16.652Z,12.77
2022-10-11T12:20:45.554Z,16.17
2022-10-11T12:23:40.394Z,10.30
2022-10-11T12:26:35.430Z,11.07
2022-10-11T12:29:28.715Z,13.53
2022-10-11T12:32:30.192Z,10.13
2022-10-11T12:35:37.780Z,11.77
2022-10-11T12:38:16.295Z,9.77
2022-10-11T12:40:47.044Z,12.17
2022-10-11T12:43:37.327Z,10.40
2022-10-11T12:46:40.729Z,8.23
2022-10-11T12:49:29.079Z,10.43
2022-10-11T12:52:01.833Z,13.87
2022-10-11T12:55:08.287Z,7.37
2022-10-11T12:58:27.213Z,15.33
2022-10-11T13:01:21.651Z,7.10
2022-10-11T13:04:01.897Z,9.03
2022-10-11T13:06:35.376Z,7.80
2022-10-11T13:09:12.556Z,7.23
2022-10-11T13:11:46.410Z,9.37
2022-10-11T13:14:18.285Z,10.33
2022-10-11T13:16:57.882Z,8.40
2022-10-11T13:19:26.913Z,11.13
2022-10-11T13:21:57.542Z,9.67
2022-10-11T13:24:27.841Z,8.00
2022-10-11T13:26:58.038Z,9.53
2022-10-11T13:29:33.621Z,8.23
2022-10-11T13:32:06.918Z,10.50
2022-10-11T13:34:39.043Z,10.83
2022-10-11T13:37:07.906Z,9.40
2022-10-11T13:39:37.935Z,11.97
2022-10-11T13:42:11.138Z,12.83
2022-10-11T13:44:40.278Z,7.20
2022-10-11T13:47:13.744Z,14.30
2022-10-11T13:49:46.469Z,9.77
2022-10-11T13:52:23.770Z,6.53
2022-10-11T13:55:09.016Z,10.13
2022-10-11T13:57:40.527Z,10.03
2022-10-11T14:00:24.120Z,10.67
2022-10-11T14:02:57.907Z,7.37
2022-10-11T14:05:31.194Z,10.90
2022-10-11T14:08:01.688Z,9.83
2022-10-11T14:10:30.236Z,8.77
2022-10-11T14:13:22.941Z,10.77
2022-10-11T14:16:00.813Z,7.67
2022-10-11T14:18:48.679Z,7.37
2022-10-11T14:21:27.215Z,6.73
2022-10-11T14:23:57.405Z,6.40
2022-10-11T14:26:29.310Z,7.77
2022-10-11T14:29:00.086Z,5.60
2022-10-11T14:31:28.491Z,6.00
2022-10-11T14:33:58.781Z,8.67
2022-10-11T14:36:26.689Z,4.37
2022-10-11T14:38:56.789Z,5.87
2022-10-11T14:41:24.709Z,9.83
2022-10-11T14:43:56.239Z,5.63
2022-10-11T14:46:27.001Z,9.90
2022-10-11T14:48:57.484Z,5.47
2022-10-11T14:51:30.479Z,9.17
2022-10-11T14:53:58.979Z,12.40
2022-10-11T14:56:26.930Z,9.80
2022-10-11T14:58:54.801Z,5.70
2022-10-11T15:01:22.761Z,8.77
2022-10-11T15:03:50.702Z,6.43
2022-10-11T15:06:22.400Z,7.37
2022-10-11T15:08:50.506Z,5.07
2022-10-11T15:11:22.300Z,7.27
2022-10-11T15:13:51.416Z,9.10
2022-10-11T15:16:21.858Z,5.60
2022-10-11T15:18:51.841Z,7.87
2022-10-11T15:21:22.804Z,8.03
2022-10-11T15:23:52.166Z,6.83
2022-10-11T15:26:22.291Z,7.63
2022-10-11T15:28:51.101Z,5.63
2022-10-11T15:31:19.332Z,9.27
2022-10-11T15:33:47.456Z,6.13
2022-10-11T15:36:18.410Z,8.17
2022-10-11T15:38:49.102Z,5.40
2022-10-11T15:41:19.836Z,6.70
2022-10-11T15:43:49.680Z,10.97
2022-10-11T15:46:22.052Z,6.93
2022-10-11T15:48:51.533Z,5.90
2022-10-11T15:51:20.226Z,8.37
2022-10-11T15:53:49.468Z,6.67
2022-10-11T15:56:19.383Z,7.90
2022-10-11T15:58:47.404Z,10.33
2022-10-11T16:01:17.511Z,3.73
2022-10-11T16:03:46.240Z,5.10
2022-10-11T16:06:14.182Z,9.73
2022-10-11T16:08:42.190Z,6.90
2022-10-11T16:11:12.260Z,6.87
2022-10-11T16:13:40.515Z,7.50
2022-10-11T16:16:10.324Z,4.90
2022-10-11T16:18:39.608Z,7.83
2022-10-11T16:21:10.137Z,5.90
2022-10-11T16:23:38.446Z,5.17
2022-10-11T16:26:10.119Z,7.87
2022-10-11T16:28:39.821Z,7.90
2022-10-11T16:31:09.025Z,8.13
2022-10-11T16:33:45.205Z,5.83
2022-10-11T16:36:32.706Z,6.57
2022-10-11T16:39:01.779Z,6.93
2022-10-11T16:41:29.701Z,7.73
2022-10-11T16:43:59.009Z,5.73
2022-10-11T16:46:26.957Z,6.83
2022-10-11T16:48:56.788Z,8.17
2022-10-11T16:51:25.285Z,6.77
2022-10-11T16:53:53.605Z,7.63
2022-10-11T16:56:22.679Z,5.07
2022-10-11T16:58:50.622Z,5.73
2022-10-11T17:01:20.100Z,8.10
2022-10-11T17:03:49.446Z,10.17
2022-10-11T17:06:17.719Z,10.00
2022-10-11T17:08:45.676Z,12.07
2022-10-11T17:11:13.549Z,10.23
2022-10-11T17:13:41.425Z,8.47
2022-10-11T17:16:09.643Z,8.83
2022-10-11T17:18:39.061Z,7.30
2022-10-11T17:21:09.020Z,9.07
2022-10-11T17:23:37.337Z,9.53
2022-10-11T17:26:10.998Z,6.67
2022-10-11T17:28:40.009Z,8.57
2022-10-11T17:31:09.042Z,8.20
2022-10-11T17:33:38.795Z,4.67
2022-10-11T17:36:16.399Z,12.43
2022-10-11T17:38:44.340Z,12.90
2022-10-11T17:41:12.796Z,11.60
2022-10-11T17:43:41.016Z,9.03
2022-10-11T17:46:09.851Z,10.50
2022-10-11T17:48:39.772Z,8.17
2022-10-11T17:51:09.702Z,7.93
2022-10-11T17:53:38.330Z,8.37
2022-10-11T17:56:07.804Z,9.90
2022-10-11T17:58:35.975Z,9.17
2022-10-11T18:01:07.375Z,7.23
2022-10-11T18:03:36.007Z,12.27
2022-10-11T18:06:06.931Z,9.00
2022-10-11T18:08:39.910Z,10.60
2022-10-11T18:11:11.781Z,12.00
2022-10-11T18:13:43.160Z,9.63
2022-10-11T18:16:11.875Z,13.53
2022-10-11T18:18:40.879Z,9.47
2022-10-11T18:21:10.820Z,9.43
2022-10-11T18:23:38.749Z,8.03
2022-10-11T18:26:11.817Z,9.57
2022-10-11T18:28:40.563Z,15.70
2022-10-11T18:31:12.936Z,14.83
2022-10-11T18:33:42.126Z,14.43
2022-10-11T18:36:13.586Z,10.10
2022-10-11T18:38:46.016Z,15.77
2022-10-11T18:41:17.930Z,10.50
2022-10-11T18:43:50.169Z,12.87
2022-10-11T18:46:18.600Z,9.70
2022-10-11T18:48:48.283Z,15.73
2022-10-11T18:51:19.444Z,18.00
2022-10-11T18:53:48.256Z,15.43
2022-10-11T18:56:20.483Z,17.87
2022-10-11T18:58:49.529Z,13.87
2022-10-11T19:01:20.113Z,14.60
2022-10-11T19:03:52.289Z,15.23
2022-10-11T19:06:23.624Z,16.60
2022-10-11T19:08:53.798Z,17.47
2022-10-11T19:11:25.131Z,16.57
2022-10-11T19:13:56.742Z,13.60
2022-10-11T19:16:24.759Z,13.20
2022-10-11T19:18:54.022Z,14.67
2022-10-11T19:21:23.939Z,15.73
2022-10-11T19:23:52.805Z,14.77
2022-10-11T19:26:22.190Z,11.43
2022-10-11T19:28:55.185Z,13.37
2022-10-11T19:31:23.291Z,12.30
2022-10-11T19:33:51.250Z,12.33
2022-10-11T19:36:19.851Z,14.63
2022-10-11T19:38:51.076Z,13.37
2022-10-11T19:41:20.768Z,13.40
2022-10-11T19:43:48.820Z,13.43
2022-10-11T19:46:37.860Z,17.77
2022-10-11T19:49:08.916Z,14.27
2022-10-11T19:51:38.193Z,10.13
2022-10-11T19:54:09.328Z,10.47
2022-10-11T19:56:37.245Z,14.43
2022-10-11T19:59:07.266Z,13.70
2022-10-11T20:01:36.844Z,15.50
2022-10-11T20:04:06.708Z,15.63
2022-10-11T20:06:38.537Z,15.40
2022-10-11T20:11:56.893Z,12.93
2022-10-11T20:14:25.205Z,13.40
2022-10-11T20:16:53.163Z,20.23
2022-10-11T20:19:26.188Z,14.73
2022-10-11T20:21:55.748Z,12.63
2022-10-11T20:24:27.377Z,15.10
2022-10-11T20:26:55.502Z,13.27
2022-10-11T20:29:25.256Z,15.13
2022-10-11T20:31:53.459Z,16.33
2022-10-11T20:34:21.377Z,13.83
2022-10-11T20:36:49.579Z,13.53
2022-10-11T20:39:17.809Z,13.80
2022-10-11T20:41:47.119Z,13.03
2022-10-11T20:44:16.119Z,11.97
2022-10-11T20:46:44.103Z,11.57
2022-10-11T20:49:13.185Z,11.60
2022-10-11T20:51:42.833Z,11.07
2022-10-11T20:54:11.416Z,12.23
2022-10-11T20:56:39.655Z,12.07
2022-10-11T20:59:09.551Z,12.27
2022-10-11T21:01:40.268Z,9.03
2022-10-11T21:04:10.799Z,12.97
2022-10-11T21:06:38.805Z,14.33
2022-10-11T21:09:06.862Z,8.77
2022-10-11T21:11:35.541Z,11.03
2022-10-11T21:14:05.797Z,13.77
2022-10-11T21:16:35.788Z,11.00
2022-10-11T21:19:04.019Z,10.70
2022-10-11T21:21:32.315Z,12.23
2022-10-11T21:24:01.919Z,14.13
2022-10-11T21:26:30.927Z,9.33
2022-10-11T21:29:00.153Z,14.87
2022-10-11T21:31:32.917Z,11.97
2022-10-11T21:34:04.964Z,11.80
2022-10-11T21:36:32.831Z,10.27
2022-10-11T21:39:00.703Z,12.63
2022-10-11T21:41:30.228Z,11.50
2022-10-11T21:43:58.919Z,10.77
2022-10-11T21:46:47.447Z,12.77
2022-10-11T21:49:17.603Z,13.50
2022-10-11T21:51:45.831Z,11.50
2022-10-11T21:54:13.721Z,15.17
2022-10-11T21:56:41.937Z,13.27
2022-10-11T21:59:12.290Z,12.53
2022-10-11T22:01:41.594Z,12.17
2022-10-11T22:04:09.981Z,10.20
2022-10-11T22:06:39.715Z,8.60
2022-10-11T22:09:08.194Z,8.70
2022-10-11T22:11:36.168Z,11.07
2022-10-11T22:14:04.267Z,6.40
2022-10-11T22:16:33.562Z,10.17
2022-10-11T22:19:01.432Z,13.93
2022-10-11T22:21:29.324Z,13.00
2022-10-11T22:23:58.622Z,7.00
2022-10-11T22:26:29.910Z,9.33
2022-10-11T22:28:58.401Z,11.63
2022-10-11T22:31:26.335Z,8.20
2022-10-11T22:33:55.669Z,11.07
2022-10-11T22:36:24.831Z,12.67
2022-10-11T22:38:53.411Z,12.77
2022-10-11T22:41:22.912Z,15.93
2022-10-11T22:43:51.009Z,7.97
2022-10-11T22:46:19.018Z,11.33
2022-10-11T22:48:46.876Z,10.90
2022-10-11T22:51:14.922Z,9.97
2022-10-11T22:53:42.812Z,11.07
2022-10-11T22:56:11.234Z,11.77
2022-10-11T22:58:40.504Z,11.47
2022-10-11T23:01:09.581Z,16.53
2022-10-11T23:03:37.895Z,12.80
2022-10-11T23:06:06.799Z,9.33
2022-10-11T23:08:34.786Z,10.77
2022-10-11T23:11:06.481Z,12.97
2022-10-11T23:13:34.817Z,8.43
2022-10-11T23:16:08.237Z,15.67
2022-10-11T23:18:36.402Z,9.73
2022-10-11T23:21:04.772Z,6.43
2022-10-11T23:23:32.734Z,10.47
2022-10-11T23:26:05.264Z,11.93
2022-10-11T23:28:33.316Z,10.03
2022-10-11T23:31:06.398Z,12.90
2022-10-11T23:33:35.997Z,9.33
2022-10-11T23:36:04.403Z,7.13
2022-10-11T23:38:32.563Z,9.40
2022-10-11T23:41:00.436Z,8.73
2022-10-11T23:43:28.601Z,7.87
2022-10-11T23:45:57.279Z,11.57
2022-10-11T23:48:25.277Z,9.20
2022-10-11T23:50:54.527Z,9.40
2022-10-11T23:53:22.411Z,9.93
2022-10-11T23:55:50.684Z,10.97
2022-10-11T23:58:18.654Z,8.47
